Pagrindinis puslapis
METAR-TAF:

METAR-TAF

Oro uostai :

Niamėjus, Nigeris

platuma: 13-29N, ilguma: 002-10E, Aukštis: 223 m

Dabartinis oras

Ataskaita buvo paskelbta 28 minutes, ne 09:00 UTC
Vėjas 5 kt iš Rytų/Šiaurės Rytų, svyruoja nuo Šiaurės Rytų ir Rytų
Temperatūra 26°C
Drėgmė 18%
Slėgis 1012 hPa
Matomumas: 6000 m

METAR: DRRN 160900Z 07005KT 040V100 6000 NSC 26/00 Q1012 NOSIG

Laikas: 10:28 (09:28 UTC)

Prognozė

Ataskaita buvo paskelbta 4 valandos ir 28 minutes, ne 05:00 UTC
Prognozė galioja nuo 16 metu 06 UTC su 17 metu 12 UTC
Vėjas 8 kt iš Šiaurės Rytų
Matomumas: 8000 m

TAF: DRRN 160500Z 1606/1712 04008KT 8000 NSC

Orai ataskaitas ir orų prognozės (METAR, TAF).

turimą stotys yra geltonos ir raudonos taškus žemėlapyje.

Perkelti pele per norėdami pamatyti stoties vardą.

Tada spustelėkite, norėdami matyti oro stebėjimo ir prognozės.

Norėdami pakeisti žemėlapį: spustelėkite ant žalios mygtukų su juodo kryžiaus žemyn,; žalią mygtuką su brūkšneliu, jei norite nutolinti; arba žalių rodyklių gretimoms žemėlapius.


METAR-TAF: